Time;durP1;ratioP1;P1;durP2;ratioP2;P2;SDS_P1;SDS_P2;PMS_P1;PMS_P2;Temp;Humidity;BMP_temperature;BMP_pressure;BME280_temperature;BME280_humidity;BME280_pressure;Samples;Min_cycle;Max_cycle;Signal;HPM_P1;HPM_P2
2022/01/13 00:01:12;;;;;;;26.00;13.93;;;1.70;99.90;;;;;;5019920;28;20485;-76
2022/01/13 00:03:39;;;;;;;26.60;13.80;;;1.70;99.90;;;;;;5032250;28;20492;-75
2022/01/13 00:06:07;;;;;;;26.80;14.87;;;1.70;99.90;;;;;;5031207;28;20980;-75
2022/01/13 00:08:33;;;;;;;29.83;14.03;;;1.70;99.90;;;;;;5032673;28;20450;-75
2022/01/13 00:11:00;;;;;;;26.07;13.20;;;1.80;99.90;;;;;;5032920;28;20449;-75
2022/01/13 00:13:32;;;;;;;27.40;14.40;;;1.70;99.90;;;;;;5032799;28;20481;-75
2022/01/13 00:16:24;;;;;;;30.20;13.63;;;1.70;99.90;;;;;;5012424;28;20454;-75
2022/01/13 00:18:51;;;;;;;24.83;13.43;;;1.60;99.90;;;;;;5012387;28;20457;-75
2022/01/13 00:21:32;;;;;;;29.67;13.47;;;1.50;99.90;;;;;;5021552;28;20488;-76
2022/01/13 00:24:00;;;;;;;31.57;14.77;;;1.50;99.90;;;;;;5032190;28;20547;-75
2022/01/13 00:26:28;;;;;;;25.23;13.53;;;1.50;99.90;;;;;;5031784;28;20454;-75
2022/01/13 00:28:56;;;;;;;29.17;14.40;;;1.50;99.90;;;;;;5032563;28;20461;-75
2022/01/13 00:31:27;;;;;;;30.47;14.17;;;1.50;99.90;;;;;;5032448;28;20472;-75
2022/01/13 00:33:55;;;;;;;25.40;13.30;;;1.50;99.90;;;;;;5031787;28;20527;-75
2022/01/13 00:36:24;;;;;;;29.60;14.93;;;1.50;99.90;;;;;;5031958;28;20480;-75
2022/01/13 00:38:51;;;;;;;26.57;14.97;;;1.40;99.90;;;;;;5031995;28;20861;-75
2022/01/13 00:41:19;;;;;;;30.57;16.47;;;1.50;99.90;;;;;;5031998;28;20538;-76
2022/01/13 00:43:47;;;;;;;26.30;14.83;;;1.50;99.90;;;;;;5032060;28;20500;-75
2022/01/13 00:46:19;;;;;;;27.40;13.83;;;1.50;99.90;;;;;;5031783;28;20453;-76
2022/01/13 00:48:46;;;;;;;26.13;13.97;;;1.50;99.90;;;;;;5032134;28;20564;-75
2022/01/13 00:51:13;;;;;;;32.37;14.90;;;1.50;99.90;;;;;;5031892;28;20446;-75
2022/01/13 00:53:41;;;;;;;34.87;15.27;;;1.50;99.90;;;;;;5031788;28;20465;-75
2022/01/13 00:56:08;;;;;;;35.67;15.17;;;1.40;99.90;;;;;;5031720;28;20508;-75
2022/01/13 00:58:36;;;;;;;27.53;13.63;;;1.40;99.90;;;;;;5031897;28;20449;-75
2022/01/13 01:01:04;;;;;;;30.13;14.70;;;1.40;99.90;;;;;;5031558;28;20624;-76
2022/01/13 01:03:31;;;;;;;26.27;15.03;;;1.40;99.90;;;;;;5064296;22;20992;-74
2022/01/13 01:05:58;;;;;;;31.40;14.70;;;1.40;99.90;;;;;;5051694;28;20445;-74
2022/01/13 01:08:25;;;;;;;27.70;13.83;;;1.40;99.90;;;;;;5050123;28;20666;-74
2022/01/13 01:10:55;;;;;;;30.63;14.93;;;1.50;99.90;;;;;;5050379;28;20444;-75
2022/01/13 01:13:27;;;;;;;30.40;15.43;;;1.50;99.90;;;;;;5050297;28;20499;-75
2022/01/13 01:15:57;;;;;;;31.83;15.13;;;1.40;99.90;;;;;;5049224;28;20452;-74
2022/01/13 01:18:31;;;;;;;31.97;15.67;;;1.40;99.90;;;;;;5050352;28;20452;-74
2022/01/13 01:21:05;;;;;;;26.83;13.93;;;1.40;99.90;;;;;;5049566;28;20533;-74
2022/01/13 01:23:36;;;;;;;27.80;13.67;;;1.50;99.90;;;;;;5049788;28;20477;-74
2022/01/13 01:26:08;;;;;;;27.47;13.97;;;1.50;99.90;;;;;;5049412;28;21121;-74
2022/01/13 01:28:44;;;;;;;28.53;14.73;;;1.40;99.90;;;;;;5049958;28;20552;-74
2022/01/13 01:31:12;;;;;;;29.97;14.30;;;1.40;99.90;;;;;;5049222;28;20452;-74
2022/01/13 01:33:43;;;;;;;31.47;14.70;;;1.40;99.90;;;;;;5049800;28;20538;-74
2022/01/13 01:36:13;;;;;;;30.27;14.00;;;1.30;99.90;;;;;;5030001;28;20468;-75
2022/01/13 01:38:44;;;;;;;29.33;14.80;;;1.20;99.90;;;;;;5030058;28;20477;-74
2022/01/13 01:41:12;;;;;;;29.70;15.30;;;1.20;99.90;;;;;;5039440;28;20530;-74
2022/01/13 01:43:40;;;;;;;32.23;15.07;;;1.20;99.90;;;;;;5049719;28;20522;-74
2022/01/13 01:46:06;;;;;;;28.17;15.13;;;1.20;99.90;;;;;;5049371;28;20472;-75
2022/01/13 01:48:36;;;;;;;37.43;18.17;;;1.30;99.90;;;;;;5049879;28;20818;-75
2022/01/13 01:51:04;;;;;;;32.83;14.90;;;1.20;99.90;;;;;;5049612;28;20453;-74
2022/01/13 01:53:31;;;;;;;33.37;14.23;;;1.20;99.90;;;;;;5051858;28;20464;-74
2022/01/13 01:55:58;;;;;;;23.23;12.50;;;1.30;99.90;;;;;;5054105;28;20440;-74
2022/01/13 01:58:27;;;;;;;36.90;14.70;;;1.20;99.90;;;;;;5055151;28;20456;-74
2022/01/13 02:00:54;;;;;;;27.57;14.33;;;1.20;99.90;;;;;;5052807;28;20531;-74
2022/01/13 02:03:22;;;;;;;28.20;13.50;;;1.20;99.90;;;;;;5053772;28;20487;-74
2022/01/13 02:05:49;;;;;;;26.80;13.40;;;1.20;99.90;;;;;;5053712;28;20456;-74
2022/01/13 02:08:16;;;;;;;24.90;13.40;;;1.20;99.90;;;;;;5053581;28;20444;-74
2022/01/13 02:10:44;;;;;;;23.57;12.13;;;1.20;99.90;;;;;;5053345;28;20929;-74
2022/01/13 02:13:13;;;;;;;28.10;13.73;;;1.10;99.90;;;;;;5053011;28;20476;-74
2022/01/13 02:15:59;;;;;;;25.97;12.93;;;1.10;99.90;;;;;;5052450;28;20518;-74
2022/01/13 02:18:25;;;;;;;26.73;13.00;;;1.20;99.90;;;;;;5053221;28;20956;-74
2022/01/13 02:20:54;;;;;;;28.87;13.60;;;1.00;99.90;;;;;;5052668;28;20488;-74
2022/01/13 02:23:35;;;;;;;24.23;12.73;;;1.00;99.90;;;;;;5052252;28;20468;-74
2022/01/13 02:26:03;;;;;;;24.60;12.23;;;1.00;99.90;;;;;;5053179;28;20453;-74
2022/01/13 02:28:31;;;;;;;22.40;12.03;;;1.10;99.90;;;;;;5053605;28;20497;-74
2022/01/13 02:30:58;;;;;;;24.10;12.63;;;1.10;99.90;;;;;;5053054;28;20531;-74
2022/01/13 02:33:25;;;;;;;22.50;11.90;;;1.00;99.90;;;;;;5053047;28;20523;-74
2022/01/13 02:35:53;;;;;;;21.40;11.50;;;1.00;99.90;;;;;;5052926;28;20551;-74
2022/01/13 02:38:20;;;;;;;22.23;12.20;;;0.90;99.90;;;;;;5052712;28;20601;-74
2022/01/13 02:40:54;;;;;;;24.17;12.33;;;0.90;99.90;;;;;;5052937;28;20530;-74
2022/01/13 02:43:21;;;;;;;25.93;13.30;;;0.80;99.90;;;;;;5052891;28;20550;-74
2022/01/13 02:46:04;;;;;;;24.70;13.80;;;0.80;99.90;;;;;;5052573;28;20452;-74
2022/01/13 02:48:32;;;;;;;25.63;13.60;;;0.80;99.90;;;;;;5052427;28;20452;-74
2022/01/13 02:51:00;;;;;;;24.80;13.10;;;0.80;99.90;;;;;;5052740;28;20456;-74
2022/01/13 02:53:27;;;;;;;24.00;11.90;;;0.80;99.90;;;;;;5052483;28;20480;-74
2022/01/13 02:56:00;;;;;;;19.67;10.90;;;0.80;99.90;;;;;;5051869;28;20509;-74
2022/01/13 02:58:27;;;;;;;24.20;12.93;;;0.90;99.90;;;;;;5069473;28;20545;-75
2022/01/13 03:00:54;;;;;;;21.60;11.73;;;0.80;99.90;;;;;;5065207;28;20485;-74
2022/01/13 03:03:21;;;;;;;19.70;11.07;;;0.80;99.90;;;;;;5052060;28;20997;-74
2022/01/13 03:05:47;;;;;;;16.60;10.20;;;0.90;99.90;;;;;;5050831;28;20494;-74
2022/01/13 03:08:16;;;;;;;20.43;11.53;;;0.90;99.90;;;;;;5052152;28;20964;-74
2022/01/13 03:10:42;;;;;;;21.67;11.23;;;0.90;99.90;;;;;;5052741;28;20456;-74
2022/01/13 03:13:09;;;;;;;23.40;12.43;;;1.00;99.90;;;;;;5052392;28;20476;-74
2022/01/13 03:15:36;;;;;;;20.27;10.43;;;0.90;99.90;;;;;;5051458;28;20530;-75
2022/01/13 03:18:03;;;;;;;23.70;12.50;;;0.90;99.90;;;;;;5052270;28;20999;-74
2022/01/13 03:20:30;;;;;;;24.40;12.90;;;1.00;99.90;;;;;;5051728;28;20632;-74
2022/01/13 03:22:57;;;;;;;25.70;12.83;;;1.00;99.90;;;;;;5051641;28;20996;-74
2022/01/13 03:25:25;;;;;;;21.40;11.80;;;1.00;99.90;;;;;;5051932;28;20475;-74
2022/01/13 03:27:57;;;;;;;18.70;10.30;;;1.00;99.90;;;;;;5052043;28;20456;-74
2022/01/13 03:30:24;;;;;;;17.10;9.37;;;1.00;99.90;;;;;;5051895;28;20715;-74
2022/01/13 03:32:51;;;;;;;22.10;11.37;;;1.00;99.90;;;;;;5052077;28;20452;-74
2022/01/13 03:35:17;;;;;;;16.87;9.50;;;0.90;99.90;;;;;;5051717;28;20472;-74
2022/01/13 03:37:44;;;;;;;23.70;9.20;;;0.90;99.90;;;;;;5051971;28;20490;-75
2022/01/13 03:40:12;;;;;;;16.43;9.70;;;0.90;99.90;;;;;;5051522;28;20464;-74
2022/01/13 03:42:41;;;;;;;18.23;10.00;;;0.90;99.90;;;;;;5051439;28;20561;-74
2022/01/13 03:45:08;;;;;;;15.73;9.50;;;0.90;99.90;;;;;;5051142;28;20456;-74
2022/01/13 03:47:35;;;;;;;17.23;8.80;;;0.90;99.90;;;;;;5031667;28;20507;-74
2022/01/13 03:50:02;;;;;;;18.33;10.10;;;0.90;99.90;;;;;;5037142;28;20445;-74
2022/01/13 03:53:13;;;;;;;14.03;8.67;;;0.80;99.90;;;;;;5051920;28;20453;-74
2022/01/13 03:56:13;;;;;;;16.57;9.20;;;0.80;99.90;;;;;;5051007;28;20449;-74
2022/01/13 03:59:23;;;;;;;16.43;9.60;;;0.70;99.90;;;;;;5052101;28;20864;-74
2022/01/13 04:01:59;;;;;;;16.50;9.43;;;0.70;99.90;;;;;;5051172;28;20550;-75
2022/01/13 04:04:26;;;;;;;15.53;9.17;;;0.70;99.90;;;;;;5051362;28;20479;-74
2022/01/13 04:07:05;;;;;;;17.67;10.70;;;0.70;99.90;;;;;;5050697;28;20517;-74
2022/01/13 04:10:04;;;;;;;20.90;10.90;;;0.70;99.90;;;;;;5051103;28;20448;-74
2022/01/13 04:12:31;;;;;;;20.87;10.20;;;0.70;99.90;;;;;;5051602;28;20440;-74
2022/01/13 04:15:01;;;;;;;20.43;10.73;;;0.70;99.90;;;;;;5050144;28;20491;-74
2022/01/13 04:17:28;;;;;;;18.73;10.70;;;0.70;99.90;;;;;;5050751;28;20488;-74
2022/01/13 04:19:55;;;;;;;19.80;9.60;;;0.60;99.90;;;;;;5050348;28;20506;-74
2022/01/13 04:22:24;;;;;;;19.13;10.50;;;0.60;99.90;;;;;;5042023;28;20484;-74
2022/01/13 04:24:52;;;;;;;20.03;10.70;;;0.50;99.90;;;;;;5050641;28;20476;-74
2022/01/13 04:27:22;;;;;;;19.57;11.07;;;0.40;99.90;;;;;;5050939;28;20456;-74
2022/01/13 04:30:00;;;;;;;22.30;10.93;;;0.30;99.90;;;;;;5051028;28;20449;-74
2022/01/13 04:32:28;;;;;;;18.73;10.60;;;0.30;99.90;;;;;;5050877;28;20466;-75
2022/01/13 04:34:55;;;;;;;24.30;11.80;;;0.30;99.90;;;;;;5049255;28;20471;-74
2022/01/13 04:37:22;;;;;;;21.70;12.13;;;0.30;99.90;;;;;;5050590;28;20452;-74
2022/01/13 04:39:48;;;;;;;25.00;11.67;;;0.40;99.90;;;;;;5050616;28;20456;-74
2022/01/13 04:42:15;;;;;;;24.73;12.93;;;0.40;99.90;;;;;;5050406;28;20484;-75
2022/01/13 04:44:41;;;;;;;26.97;13.60;;;0.50;99.90;;;;;;5050568;28;21000;-74
2022/01/13 04:47:08;;;;;;;24.40;12.83;;;0.50;99.90;;;;;;5050510;28;20506;-74
2022/01/13 04:49:36;;;;;;;22.27;11.93;;;0.50;99.90;;;;;;5050483;28;20444;-74
2022/01/13 04:52:03;;;;;;;23.53;12.73;;;0.50;99.90;;;;;;5050699;28;20448;-74
2022/01/13 04:54:30;;;;;;;28.03;13.77;;;0.50;99.90;;;;;;5050126;28;20476;-74
2022/01/13 04:57:15;;;;;;;26.23;12.37;;;0.50;99.90;;;;;;5054476;28;20931;-75
2022/01/13 04:59:42;;;;;;;28.53;14.67;;;0.50;99.90;;;;;;5060619;28;20484;-75
2022/01/13 05:02:09;;;;;;;25.27;13.57;;;0.60;99.90;;;;;;5050450;28;20534;-74
2022/01/13 05:04:37;;;;;;;25.93;12.73;;;0.60;99.90;;;;;;5050113;28;20992;-74
2022/01/13 05:07:04;;;;;;;28.50;12.80;;;0.60;99.90;;;;;;5049937;28;20561;-74
2022/01/13 05:09:31;;;;;;;24.70;12.80;;;0.60;99.90;;;;;;5049732;28;20526;-74
2022/01/13 05:11:58;;;;;;;25.50;13.70;;;0.80;99.90;;;;;;5050561;28;20448;-74
2022/01/13 05:14:26;;;;;;;22.57;12.20;;;0.70;99.90;;;;;;5050568;28;20476;-74
2022/01/13 05:16:58;;;;;;;26.57;13.57;;;0.70;99.90;;;;;;5049389;28;20461;-74
2022/01/13 05:19:30;;;;;;;26.40;12.50;;;0.70;99.90;;;;;;5050100;28;20488;-75
2022/01/13 05:22:16;;;;;;;23.83;13.20;;;0.70;99.90;;;;;;5049501;28;20937;-74
2022/01/13 05:24:44;;;;;;;24.83;13.37;;;0.80;99.90;;;;;;5050036;28;20479;-74
2022/01/13 05:27:11;;;;;;;23.10;11.93;;;0.70;99.90;;;;;;5049706;28;20464;-74
2022/01/13 05:29:38;;;;;;;24.17;12.90;;;0.70;99.90;;;;;;5050111;28;20484;-74
2022/01/13 05:32:05;;;;;;;24.60;12.27;;;0.70;99.90;;;;;;5049215;28;20460;-74
2022/01/13 05:34:32;;;;;;;27.17;13.43;;;0.70;99.90;;;;;;5049347;28;20476;-74
2022/01/13 05:36:59;;;;;;;26.97;13.53;;;0.70;99.90;;;;;;5049682;28;20513;-75
2022/01/13 05:39:26;;;;;;;25.23;13.60;;;0.80;99.90;;;;;;5049895;28;20514;-75
2022/01/13 05:41:53;;;;;;;29.30;15.33;;;0.60;99.90;;;;;;5049625;28;20480;-75
2022/01/13 05:44:19;;;;;;;26.30;12.60;;;0.40;99.90;;;;;;5050119;28;20472;-75
2022/01/13 05:46:46;;;;;;;32.10;15.07;;;0.40;99.90;;;;;;5049203;28;20456;-75
2022/01/13 05:49:13;;;;;;;24.43;13.30;;;0.40;99.90;;;;;;5049813;28;20457;-75
2022/01/13 05:51:39;;;;;;;27.73;14.17;;;0.30;99.90;;;;;;5049447;28;20444;-75
2022/01/13 05:54:07;;;;;;;27.67;15.20;;;0.40;99.90;;;;;;5049534;28;21061;-75
2022/01/13 05:56:34;;;;;;;25.73;13.00;;;0.30;99.90;;;;;;5051022;28;20452;-75
2022/01/13 05:59:01;;;;;;;19.83;11.20;;;0.40;99.90;;;;;;5052526;28;20456;-75
2022/01/13 06:01:27;;;;;;;26.10;13.13;;;0.40;99.90;;;;;;5048016;28;20530;-75
2022/01/13 06:03:54;;;;;;;23.50;12.83;;;0.50;99.90;;;;;;5049965;28;20484;-75
2022/01/13 06:06:20;;;;;;;25.33;13.10;;;0.40;99.90;;;;;;5048919;28;20448;-75
2022/01/13 06:08:47;;;;;;;26.63;13.13;;;0.40;99.90;;;;;;5049951;28;20511;-75
2022/01/13 06:11:15;;;;;;;29.90;14.80;;;0.50;99.90;;;;;;5049915;28;20448;-75
2022/01/13 06:13:42;;;;;;;27.63;14.70;;;0.50;99.90;;;;;;5049845;28;20519;-75
2022/01/13 06:16:08;;;;;;;27.67;12.87;;;0.50;99.90;;;;;;5048190;28;20460;-75
2022/01/13 06:18:35;;;;;;;27.70;12.83;;;0.60;99.90;;;;;;5049667;28;20466;-75
2022/01/13 06:21:02;;;;;;;24.07;12.37;;;0.50;99.90;;;;;;5049593;28;20843;-75
2022/01/13 06:23:29;;;;;;;30.23;14.50;;;0.50;99.90;;;;;;5045678;28;21091;-75
2022/01/13 06:25:57;;;;;;;28.03;13.63;;;0.50;99.90;;;;;;5049056;28;20864;-75
2022/01/13 06:28:26;;;;;;;26.67;12.40;;;0.40;99.90;;;;;;5049855;28;20877;-75
2022/01/13 06:30:53;;;;;;;23.53;12.20;;;0.40;99.90;;;;;;5049463;28;20456;-75
2022/01/13 06:33:19;;;;;;;27.27;13.50;;;0.40;99.90;;;;;;5044941;28;20473;-76
2022/01/13 06:35:46;;;;;;;25.60;13.30;;;0.40;99.90;;;;;;5049307;28;20460;-75
2022/01/13 06:38:13;;;;;;;27.53;13.40;;;0.40;99.90;;;;;;5049319;28;20502;-76
2022/01/13 06:40:40;;;;;;;26.67;14.27;;;0.30;99.90;;;;;;5053545;28;20456;-76
2022/01/13 06:43:06;;;;;;;24.87;14.03;;;0.30;99.90;;;;;;5053276;28;20533;-76
2022/01/13 06:45:34;;;;;;;25.60;13.60;;;0.30;99.90;;;;;;5052726;28;20444;-76
2022/01/13 06:48:01;;;;;;;31.30;15.17;;;0.30;99.90;;;;;;5053292;28;20479;-75
2022/01/13 06:50:28;;;;;;;26.63;13.90;;;0.30;99.90;;;;;;5053025;28;20452;-76
2022/01/13 06:52:56;;;;;;;28.30;13.43;;;0.40;99.90;;;;;;5052817;28;21000;-76
2022/01/13 06:55:23;;;;;;;26.07;12.87;;;0.50;99.90;;;;;;5052890;28;20510;-76
2022/01/13 06:57:49;;;;;;;27.13;12.97;;;0.50;99.90;;;;;;5064982;28;20448;-76
2022/01/13 07:00:16;;;;;;;24.73;13.10;;;0.60;99.90;;;;;;5070990;28;20910;-77
2022/01/13 07:02:45;;;;;;;27.53;14.37;;;0.50;99.90;;;;;;5053834;28;20488;-78
2022/01/13 07:05:13;;;;;;;27.07;13.20;;;0.50;99.90;;;;;;5110784;22;20498;-73
2022/01/13 07:07:41;;;;;;;29.00;15.50;;;0.50;99.90;;;;;;5112025;28;20495;-73
2022/01/13 07:10:09;;;;;;;29.43;14.43;;;0.50;99.90;;;;;;5112796;28;20445;-74
2022/01/13 07:12:36;;;;;;;27.93;14.70;;;0.50;99.90;;;;;;5107408;28;20496;-74
2022/01/13 07:15:03;;;;;;;27.70;13.97;;;0.50;99.90;;;;;;5085186;28;20533;-74
2022/01/13 07:17:30;;;;;;;28.67;14.83;;;0.50;99.90;;;;;;5084152;28;20448;-75
2022/01/13 07:19:58;;;;;;;33.33;15.30;;;0.50;99.90;;;;;;5085683;28;20496;-76
2022/01/13 07:22:25;;;;;;;27.93;14.80;;;0.40;99.90;;;;;;5096991;28;20482;-76
2022/01/13 07:24:52;;;;;;;28.97;13.53;;;0.40;99.90;;;;;;5092776;28;20526;-74
2022/01/13 07:27:19;;;;;;;25.30;13.53;;;0.40;99.90;;;;;;5083145;28;20498;-74
2022/01/13 07:29:48;;;;;;;22.43;11.37;;;0.40;99.90;;;;;;5076466;28;20448;-76
2022/01/13 07:32:15;;;;;;;24.00;11.67;;;0.40;99.90;;;;;;5079390;28;20447;-74
2022/01/13 07:34:42;;;;;;;22.53;12.73;;;0.40;99.90;;;;;;5071798;28;20483;-73
2022/01/13 07:37:10;;;;;;;21.37;11.73;;;0.40;99.90;;;;;;5072908;28;20455;-74
2022/01/13 07:39:38;;;;;;;27.07;13.37;;;0.40;99.90;;;;;;5073391;28;20459;-74
2022/01/13 07:42:05;;;;;;;29.80;14.27;;;0.40;99.90;;;;;;5075218;28;20487;-74
2022/01/13 07:44:32;;;;;;;25.10;13.37;;;0.40;99.90;;;;;;5092591;28;20478;-74
2022/01/13 07:47:00;;;;;;;30.20;13.57;;;0.30;99.90;;;;;;5092389;28;20447;-75
2022/01/13 07:49:27;;;;;;;25.23;13.10;;;0.30;99.90;;;;;;5092921;28;20488;-76
2022/01/13 07:51:54;;;;;;;28.23;13.47;;;0.40;99.90;;;;;;5092316;28;20837;-74
2022/01/13 07:54:25;;;;;;;26.17;13.70;;;0.40;99.90;;;;;;5092217;28;20531;-76
2022/01/13 07:56:52;;;;;;;27.90;14.13;;;0.40;99.90;;;;;;5075437;28;20451;-75
2022/01/13 07:59:19;;;;;;;24.30;13.67;;;0.40;99.90;;;;;;5093523;28;20447;-75
2022/01/13 08:01:45;;;;;;;25.87;13.97;;;0.50;99.90;;;;;;5091679;28;20446;-74
2022/01/13 08:04:12;;;;;;;28.87;14.20;;;0.50;99.90;;;;;;5102173;28;20493;-73
2022/01/13 08:06:39;;;;;;;23.20;12.30;;;0.50;99.90;;;;;;5089175;28;20451;-73
2022/01/13 08:09:06;;;;;;;21.70;12.27;;;0.50;99.90;;;;;;5081051;28;20443;-74
2022/01/13 08:11:34;;;;;;;27.60;13.27;;;0.50;99.90;;;;;;5073101;28;20513;-74
2022/01/13 08:14:01;;;;;;;25.77;14.03;;;0.50;99.90;;;;;;5072743;28;20541;-73
2022/01/13 08:16:32;;;;;;;26.10;13.20;;;0.50;99.90;;;;;;5088354;28;20850;-74
2022/01/13 08:21:44;;;;;;;26.70;13.10;;;0.50;99.90;;;;;;5085022;28;20480;-74
2022/01/13 08:24:10;;;;;;;32.77;13.83;;;0.50;99.90;;;;;;5092070;28;20582;-75
2022/01/13 08:26:38;;;;;;;28.00;14.27;;;0.60;99.90;;;;;;5091485;28;20457;-75
2022/01/13 08:29:05;;;;;;;26.03;12.70;;;0.60;99.90;;;;;;5084343;28;20504;-74
2022/01/13 08:31:32;;;;;;;26.83;13.13;;;0.70;99.90;;;;;;5091622;28;20459;-74
2022/01/13 08:33:58;;;;;;;33.60;13.77;;;0.50;99.90;;;;;;5093356;28;20466;-74
2022/01/13 08:36:25;;;;;;;29.20;12.20;;;0.50;99.90;;;;;;5092055;28;20508;-74
2022/01/13 08:38:52;;;;;;;29.17;14.20;;;0.50;99.90;;;;;;5081910;28;20562;-75
2022/01/13 08:41:19;;;;;;;30.13;14.93;;;0.50;99.90;;;;;;5092458;28;20471;-74
2022/01/13 08:43:47;;;;;;;30.93;14.27;;;0.40;99.90;;;;;;5104485;28;20481;-75
2022/01/13 08:46:13;;;;;;;26.60;13.67;;;0.40;99.90;;;;;;5103209;28;20485;-74
2022/01/13 08:48:40;;;;;;;24.00;13.83;;;0.40;99.90;;;;;;5091740;28;20442;-75
2022/01/13 08:51:07;;;;;;;26.33;12.73;;;0.40;99.90;;;;;;5092455;28;20481;-75
2022/01/13 08:53:34;;;;;;;26.67;12.30;;;0.40;99.90;;;;;;5090535;28;20470;-74
2022/01/13 08:56:00;;;;;;;24.57;13.33;;;0.40;99.90;;;;;;5091335;28;20906;-73
2022/01/13 08:58:27;;;;;;;25.27;12.80;;;0.50;99.90;;;;;;5092240;28;20607;-74
2022/01/13 09:00:56;;;;;;;27.07;13.07;;;0.50;99.90;;;;;;5093483;28;20490;-75
2022/01/13 09:03:23;;;;;;;24.20;13.07;;;0.40;99.90;;;;;;5091505;28;20559;-74
2022/01/13 09:05:49;;;;;;;22.33;12.37;;;0.40;99.90;;;;;;5093582;28;20451;-75
2022/01/13 09:08:16;;;;;;;24.80;12.37;;;0.40;99.90;;;;;;5084848;28;20450;-74
2022/01/13 09:10:44;;;;;;;23.70;13.60;;;0.40;99.90;;;;;;5091684;28;20451;-76
2022/01/13 09:13:14;;;;;;;26.80;11.53;;;0.50;99.90;;;;;;5092049;28;20451;-75
2022/01/13 09:15:44;;;;;;;27.67;13.53;;;0.50;99.90;;;;;;5086834;28;20496;-76
2022/01/13 09:18:17;;;;;;;27.20;13.17;;;0.50;99.90;;;;;;5099001;28;20454;-76
2022/01/13 09:20:44;;;;;;;27.23;12.63;;;0.40;99.90;;;;;;5091257;28;20490;-76
2022/01/13 09:23:11;;;;;;;28.23;12.27;;;0.50;99.90;;;;;;5092150;28;20479;-76
2022/01/13 09:25:38;;;;;;;31.23;13.27;;;0.50;99.90;;;;;;5092538;28;20450;-75
2022/01/13 09:28:07;;;;;;;20.93;12.20;;;0.60;99.90;;;;;;5098957;28;20453;-75
2022/01/13 09:30:34;;;;;;;19.20;11.70;;;0.60;99.90;;;;;;5103169;28;20504;-75
2022/01/13 09:33:01;;;;;;;18.97;10.60;;;0.70;99.90;;;;;;5083782;28;20446;-76
2022/01/13 09:35:29;;;;;;;19.70;10.90;;;0.70;99.90;;;;;;5098646;28;21005;-75
2022/01/13 09:37:56;;;;;;;22.20;11.20;;;0.70;99.90;;;;;;5072346;28;20505;-76
2022/01/13 09:40:23;;;;;;;24.27;11.90;;;0.80;99.90;;;;;;5094925;28;20505;-75
2022/01/13 09:42:50;;;;;;;22.37;12.17;;;0.90;99.90;;;;;;5097738;28;21171;-75
2022/01/13 09:45:18;;;;;;;22.10;11.57;;;0.90;99.90;;;;;;5111301;28;20495;-74
2022/01/13 09:47:47;;;;;;;25.07;12.87;;;0.80;99.90;;;;;;5092698;28;20500;-74
2022/01/13 09:50:16;;;;;;;24.20;11.67;;;0.70;99.90;;;;;;5091769;28;20447;-75
2022/01/13 09:52:45;;;;;;;22.27;11.80;;;0.70;99.90;;;;;;5090709;28;21112;-74
2022/01/13 09:55:14;;;;;;;24.53;12.40;;;0.70;99.90;;;;;;5099603;28;20473;-74
2022/01/13 09:57:43;;;;;;;33.40;13.30;;;0.70;99.90;;;;;;5104911;28;21169;-76
2022/01/13 10:00:10;;;;;;;24.80;13.00;;;0.70;99.90;;;;;;5105208;28;20500;-75
2022/01/13 10:02:37;;;;;;;27.67;13.40;;;0.70;99.90;;;;;;5080055;28;20504;-74
2022/01/13 10:05:05;;;;;;;29.33;13.13;;;0.80;99.90;;;;;;5095983;28;20482;-75
2022/01/13 10:07:34;;;;;;;24.73;12.63;;;0.80;99.90;;;;;;5091248;28;20533;-75
2022/01/13 10:10:05;;;;;;;27.10;13.90;;;0.80;99.90;;;;;;5095233;28;20446;-75
2022/01/13 10:12:37;;;;;;;33.37;14.07;;;0.80;99.90;;;;;;5092077;28;20839;-75
2022/01/13 10:17:52;;;;;;;34.97;17.20;;;0.90;99.90;;;;;;5098292;28;20490;-76
2022/01/13 10:20:21;;;;;;;34.73;16.30;;;1.10;99.90;;;;;;5096365;28;20454;-75
2022/01/13 10:22:49;;;;;;;31.70;14.50;;;1.20;99.90;;;;;;5091370;28;20505;-75
2022/01/13 10:25:29;;;;;;;28.60;14.97;;;1.30;99.90;;;;;;5088971;28;20535;-75
2022/01/13 10:27:56;;;;;;;33.77;16.23;;;1.40;99.90;;;;;;5098881;28;20829;-75
2022/01/13 10:30:25;;;;;;;30.17;15.63;;;1.40;99.90;;;;;;5113252;28;20518;-75
2022/01/13 10:32:54;;;;;;;32.47;16.37;;;1.40;99.90;;;;;;5095946;28;20454;-76
2022/01/13 10:35:23;;;;;;;33.80;16.10;;;1.40;99.90;;;;;;5096022;28;20919;-75
2022/01/13 10:37:53;;;;;;;46.63;18.30;;;1.40;99.90;;;;;;5094524;28;21023;-75
2022/01/13 10:40:23;;;;;;;32.80;16.83;;;1.50;99.90;;;;;;5095242;28;20957;-74
2022/01/13 10:43:10;;;;;;;36.23;16.33;;;1.50;99.90;;;;;;5092489;28;20482;-75
2022/01/13 10:45:42;;;;;;;34.10;16.13;;;1.60;99.90;;;;;;5090687;28;20450;-75
2022/01/13 10:48:11;;;;;;;29.87;15.97;;;1.70;99.90;;;;;;5108539;28;20503;-75
2022/01/13 10:50:42;;;;;;;34.47;16.50;;;1.70;99.90;;;;;;5099307;28;20455;-75
2022/01/13 10:53:12;;;;;;;32.90;15.20;;;1.90;99.90;;;;;;5093787;28;20871;-75
2022/01/13 10:55:43;;;;;;;29.47;15.13;;;1.80;99.90;;;;;;5104403;28;20861;-75
2022/01/13 10:58:13;;;;;;;29.60;15.10;;;1.90;99.90;;;;;;5100204;28;20454;-75
2022/01/13 11:00:41;;;;;;;30.37;15.80;;;1.80;99.90;;;;;;5086715;28;20455;-75
2022/01/13 11:03:10;;;;;;;32.83;14.67;;;1.80;99.90;;;;;;5090798;28;20493;-75
2022/01/13 11:05:40;;;;;;;33.63;16.43;;;1.70;99.90;;;;;;5098804;28;20823;-76
2022/01/13 11:08:09;;;;;;;34.17;16.30;;;1.50;99.90;;;;;;5087172;28;20463;-75
2022/01/13 11:10:37;;;;;;;31.70;16.07;;;1.50;99.90;;;;;;5090385;28;20460;-75
2022/01/13 11:13:05;;;;;;;36.80;17.20;;;1.40;99.90;;;;;;5104337;28;20457;-75
2022/01/13 11:15:34;;;;;;;31.83;15.60;;;1.40;99.90;;;;;;5104522;28;20451;-75
2022/01/13 11:18:01;;;;;;;32.17;16.07;;;1.40;99.90;;;;;;5102894;28;20454;-75
2022/01/13 11:20:29;;;;;;;30.03;16.00;;;1.50;99.90;;;;;;5102853;28;20458;-76
2022/01/13 11:22:58;;;;;;;29.67;15.17;;;1.40;99.90;;;;;;5097057;28;20448;-75
2022/01/13 11:25:27;;;;;;;31.63;15.53;;;1.40;99.90;;;;;;5089196;28;21055;-76
2022/01/13 11:27:56;;;;;;;39.90;17.30;;;1.30;99.90;;;;;;5095055;28;20541;-75
2022/01/13 11:30:25;;;;;;;29.57;15.70;;;1.40;99.90;;;;;;5091931;28;20528;-75
2022/01/13 11:32:53;;;;;;;36.40;15.50;;;1.30;99.90;;;;;;5093722;28;20454;-73
2022/01/13 11:35:23;;;;;;;29.20;14.93;;;1.30;99.90;;;;;;5093499;28;20475;-73
2022/01/13 11:37:50;;;;;;;29.93;14.10;;;1.20;99.90;;;;;;5096785;28;20458;-73
2022/01/13 11:40:40;;;;;;;26.27;14.27;;;1.20;99.90;;;;;;5097980;28;20819;-74
2022/01/13 11:43:17;;;;;;;32.10;14.77;;;1.30;99.90;;;;;;5085911;28;20482;-73
2022/01/13 11:45:45;;;;;;;28.43;13.97;;;1.30;99.90;;;;;;5095975;28;20510;-73
2022/01/13 11:48:19;;;;;;;29.97;14.10;;;1.20;99.90;;;;;;5110371;28;20454;-72
2022/01/13 11:50:50;;;;;;;33.90;15.77;;;1.30;99.90;;;;;;5089639;28;20452;-75
2022/01/13 11:53:27;;;;;;;30.00;13.70;;;1.30;99.90;;;;;;5095839;28;20443;-72
2022/01/13 11:55:59;;;;;;;33.70;15.60;;;1.20;99.90;;;;;;5114627;28;20446;-77
2022/01/13 11:58:31;;;;;;;31.53;14.70;;;1.30;99.90;;;;;;5102102;28;20450;-73
2022/01/13 12:01:09;;;;;;;32.47;14.17;;;1.30;99.90;;;;;;5090421;28;20503;-73
2022/01/13 12:03:41;;;;;;;36.37;15.20;;;1.30;99.90;;;;;;5093257;28;20568;-73
2022/01/13 12:06:08;;;;;;;22.80;11.80;;;1.40;99.90;;;;;;5101486;28;20579;-73
2022/01/13 12:08:45;;;;;;;25.17;12.67;;;1.40;99.90;;;;;;5107408;28;20471;-76
2022/01/13 12:11:36;;;;;;;23.03;12.50;;;1.50;99.90;;;;;;5104188;28;20446;-73
2022/01/13 12:14:03;;;;;;;26.53;13.77;;;1.50;99.90;;;;;;5079000;28;20463;-71
2022/01/13 12:16:52;;;;;;;25.50;12.40;;;1.50;99.90;;;;;;5091109;28;21021;-71
2022/01/13 12:19:29;;;;;;;28.30;13.17;;;1.70;99.90;;;;;;5092402;28;20482;-74
2022/01/13 12:22:03;;;;;;;30.40;14.30;;;1.80;99.90;;;;;;5092393;28;20446;-74
2022/01/13 12:24:49;;;;;;;29.47;14.50;;;1.90;99.90;;;;;;5107971;28;20513;-73
2022/01/13 12:27:17;;;;;;;29.40;13.20;;;1.80;99.90;;;;;;5111182;28;20454;-74
2022/01/13 12:29:45;;;;;;;30.80;14.00;;;1.70;99.90;;;;;;5112423;28;20445;-73
2022/01/13 12:32:14;;;;;;;42.60;16.70;;;1.80;99.90;;;;;;5094936;28;20503;-74
2022/01/13 12:34:51;;;;;;;32.17;16.10;;;1.90;99.90;;;;;;5110557;28;20992;-76
2022/01/13 12:37:30;;;;;;;53.87;21.90;;;1.90;99.90;;;;;;5092973;28;20458;-76
2022/01/13 12:40:00;;;;;;;41.80;19.40;;;1.90;99.90;;;;;;5092903;28;20450;-74
2022/01/13 12:42:36;;;;;;;49.77;21.27;;;1.90;99.90;;;;;;5093365;28;20478;-75
2022/01/13 12:47:49;;;;;;;44.67;21.10;;;1.90;99.90;;;;;;5081462;28;20527;-73
2022/01/13 12:50:24;;;;;;;43.67;19.73;;;2.00;99.90;;;;;;5091699;28;20447;-72
2022/01/13 12:52:51;;;;;;;36.77;18.70;;;2.00;99.90;;;;;;5084399;28;20446;-72
2022/01/13 12:55:19;;;;;;;39.60;19.23;;;1.90;99.90;;;;;;5098718;28;20486;-74
2022/01/13 12:57:49;;;;;;;37.90;19.17;;;1.90;99.90;;;;;;5088837;28;20461;-72